createdAt,value
2023-01-29T00:02:49.035Z,102660.59
2023-01-29T00:07:00.697Z,102641.94
2023-01-29T00:11:12.677Z,102668.47
2023-01-29T00:15:24.208Z,102637.97
2023-01-29T00:19:36.203Z,102641.88
2023-01-29T00:23:48.631Z,102665.94
2023-01-29T00:28:00.193Z,102636.75
2023-01-29T00:32:11.903Z,102633.00
2023-01-29T00:36:25.487Z,102633.59
2023-01-29T00:40:58.438Z,102622.25
2023-01-29T00:45:10.686Z,102624.91
2023-01-29T00:49:22.451Z,102611.69
2023-01-29T00:53:35.145Z,102621.47
2023-01-29T00:57:48.163Z,102623.16
2023-01-29T01:02:18.444Z,102634.75
2023-01-29T01:06:29.964Z,102637.78
2023-01-29T01:10:41.466Z,102629.81
2023-01-29T01:14:52.969Z,102626.19
2023-01-29T01:19:05.093Z,102632.22
2023-01-29T01:23:17.621Z,102629.56
2023-01-29T01:27:29.176Z,102620.16
2023-01-29T01:31:40.695Z,102600.00
2023-01-29T01:35:52.222Z,102619.31
2023-01-29T01:40:12.493Z,102620.41
2023-01-29T01:44:52.088Z,102625.34
2023-01-29T01:49:16.063Z,102617.88
2023-01-29T01:53:34.446Z,102613.66
2023-01-29T01:57:50.624Z,102625.13
2023-01-29T02:02:20.808Z,102624.34
2023-01-29T02:06:52.436Z,102630.50
2023-01-29T02:11:05.952Z,102628.44
2023-01-29T02:15:17.508Z,102627.59
2023-01-29T02:19:45.399Z,102628.56
2023-01-29T02:24:18.268Z,102619.75
2023-01-29T02:28:58.217Z,102622.53
2023-01-29T02:33:12.610Z,102631.81
2023-01-29T02:37:34.910Z,102624.94
2023-01-29T02:41:59.975Z,102614.22
2023-01-29T02:46:21.116Z,102608.19
2023-01-29T02:50:43.181Z,102626.38
2023-01-29T02:55:02.930Z,102624.56
2023-01-29T02:59:21.077Z,102634.22
2023-01-29T03:03:38.305Z,102633.50
2023-01-29T03:07:56.480Z,102629.03
2023-01-29T03:12:33.924Z,102633.03
2023-01-29T03:16:52.983Z,102627.97
2023-01-29T03:21:31.024Z,102623.84
2023-01-29T03:26:03.171Z,102596.34
2023-01-29T03:30:37.622Z,102603.06
2023-01-29T03:35:12.697Z,102592.72
2023-01-29T03:39:29.924Z,102585.44
2023-01-29T03:43:50.813Z,102579.16
2023-01-29T03:48:16.403Z,102575.94
2023-01-29T03:52:45.517Z,102568.22
2023-01-29T03:57:16.028Z,102566.66
2023-01-29T04:01:36.784Z,102565.81
2023-01-29T04:06:09.675Z,102561.94
2023-01-29T04:10:28.249Z,102569.50
2023-01-29T04:14:40.319Z,102578.47
2023-01-29T04:18:52.546Z,102569.66
2023-01-29T04:23:21.853Z,102553.56
2023-01-29T04:27:57.130Z,102548.84
2023-01-29T04:32:28.297Z,102538.81
2023-01-29T04:36:52.742Z,102534.47
2023-01-29T04:41:26.874Z,102538.81
2023-01-29T04:45:58.107Z,102552.94
2023-01-29T04:50:27.836Z,102531.91
2023-01-29T04:55:06.167Z,102533.34
2023-01-29T04:59:27.648Z,102529.00
2023-01-29T05:03:42.524Z,102518.50
2023-01-29T05:07:55.426Z,102511.88
2023-01-29T05:12:10.535Z,102504.91
2023-01-29T05:16:27.942Z,102517.25
2023-01-29T05:20:42.237Z,102510.97
2023-01-29T05:24:53.778Z,102513.38
2023-01-29T05:29:05.391Z,102497.91
2023-01-29T05:33:23.610Z,102513.63
2023-01-29T05:37:35.172Z,102507.34
2023-01-29T05:41:46.759Z,102522.03
2023-01-29T05:46:00.317Z,102526.97
2023-01-29T05:50:13.094Z,102538.44
2023-01-29T05:54:24.574Z,102538.69
2023-01-29T05:58:36.242Z,102536.50
2023-01-29T06:02:47.785Z,102530.72
2023-01-29T06:06:59.381Z,102508.63
2023-01-29T06:11:13.201Z,102492.56
2023-01-29T06:15:26.341Z,102499.31
2023-01-29T06:19:37.870Z,102503.91
2023-01-29T06:23:49.356Z,102502.53
2023-01-29T06:28:00.857Z,102494.00
2023-01-29T06:32:12.614Z,102492.59
2023-01-29T06:36:24.205Z,102490.09
2023-01-29T06:40:35.755Z,102484.78
2023-01-29T06:44:47.351Z,102482.69
2023-01-29T06:49:00.497Z,102478.91
2023-01-29T06:53:12.747Z,102485.47
2023-01-29T06:57:24.355Z,102500.19
2023-01-29T07:01:40.989Z,102489.81
2023-01-29T07:05:53.159Z,102491.97
2023-01-29T07:10:05.065Z,102485.41
2023-01-29T07:14:16.539Z,102490.00
2023-01-29T07:18:29.181Z,102487.81
2023-01-29T07:22:40.669Z,102478.53
2023-01-29T07:26:52.236Z,102476.28
2023-01-29T07:31:04.166Z,102472.78
2023-01-29T07:35:15.759Z,102487.63
2023-01-29T07:39:27.301Z,102485.94
2023-01-29T07:43:38.774Z,102493.66
2023-01-29T07:47:54.989Z,102487.09
2023-01-29T07:52:06.447Z,102469.22
2023-01-29T07:56:17.888Z,102471.88
2023-01-29T08:00:30.776Z,102460.72
2023-01-29T08:04:42.318Z,102444.50
2023-01-29T08:08:55.697Z,102415.97
2023-01-29T08:13:07.709Z,102424.66
2023-01-29T08:17:19.285Z,102452.34
2023-01-29T08:21:30.861Z,102450.66
2023-01-29T08:25:42.655Z,102449.00
2023-01-29T08:29:54.159Z,102436.38
2023-01-29T08:34:05.657Z,102437.53
2023-01-29T08:38:17.726Z,102428.84
2023-01-29T08:42:29.222Z,102412.63
2023-01-29T08:46:40.790Z,102409.59
2023-01-29T08:50:52.310Z,102403.97
2023-01-29T08:55:03.969Z,102397.41
2023-01-29T08:59:15.726Z,102385.50
2023-01-29T09:03:27.328Z,102408.47
2023-01-29T09:07:39.232Z,102414.91
2023-01-29T09:11:50.913Z,102409.44
2023-01-29T09:16:04.062Z,102409.72
2023-01-29T09:20:16.519Z,102399.66
2023-01-29T09:24:28.262Z,102417.41
2023-01-29T09:28:40.083Z,102409.16
2023-01-29T09:32:54.432Z,102363.00
2023-01-29T09:37:06.647Z,102408.06
2023-01-29T09:41:33.713Z,102412.38
2023-01-29T09:46:06.813Z,102397.97
2023-01-29T09:50:26.643Z,102402.44
2023-01-29T09:54:59.873Z,102416.44
2023-01-29T09:59:14.153Z,102403.97
2023-01-29T10:03:49.276Z,102399.63
2023-01-29T10:08:29.035Z,102406.06
2023-01-29T10:12:58.910Z,102400.63
2023-01-29T10:17:36.174Z,102399.75
2023-01-29T10:22:09.429Z,102399.19
2023-01-29T10:26:26.319Z,102397.38
2023-01-29T10:30:40.977Z,102395.53
2023-01-29T10:34:59.840Z,102382.53
2023-01-29T10:39:17.737Z,102384.19
2023-01-29T10:43:38.632Z,102382.94
2023-01-29T10:47:57.229Z,102370.47
2023-01-29T10:52:44.333Z,102362.91
2023-01-29T10:57:07.948Z,102349.19
2023-01-29T11:01:19.484Z,102354.38
2023-01-29T11:06:01.539Z,102341.19
2023-01-29T11:10:22.141Z,102336.94
2023-01-29T11:14:44.510Z,102321.81
2023-01-29T11:18:59.362Z,102314.38
2023-01-29T11:23:31.315Z,102306.66
2023-01-29T11:27:52.815Z,102294.28
2023-01-29T11:32:07.532Z,102289.34
2023-01-29T11:36:38.692Z,102281.44
2023-01-29T11:40:50.689Z,102273.44
2023-01-29T11:45:02.213Z,102273.16
2023-01-29T11:49:25.112Z,102270.88
2023-01-29T11:53:43.774Z,102264.56
2023-01-29T11:58:01.153Z,102258.81
2023-01-29T12:02:31.553Z,102251.78
2023-01-29T12:06:44.993Z,102238.28
2023-01-29T12:11:24.505Z,102242.88
2023-01-29T12:15:41.411Z,102232.53
2023-01-29T12:19:59.715Z,102225.22
2023-01-29T12:24:23.299Z,102225.06
2023-01-29T12:28:42.233Z,102197.16
2023-01-29T12:33:03.081Z,102205.88
2023-01-29T12:37:51.915Z,102197.16
2023-01-29T12:42:18.967Z,102189.44
2023-01-29T12:46:37.924Z,102174.91
2023-01-29T12:50:52.640Z,102174.56
2023-01-29T12:55:15.930Z,102160.91
2023-01-29T12:59:44.459Z,102157.78
2023-01-29T13:04:26.157Z,102143.63
2023-01-29T13:08:45.677Z,102129.25
2023-01-29T13:13:06.172Z,102124.97
2023-01-29T13:17:41.082Z,102120.34
2023-01-29T13:21:55.969Z,102095.97
2023-01-29T13:26:07.645Z,102101.44
2023-01-29T13:30:25.377Z,102093.09
2023-01-29T13:34:43.983Z,102081.38
2023-01-29T13:39:05.939Z,102073.69
2023-01-29T13:43:23.777Z,102055.66
2023-01-29T13:47:38.477Z,102056.97
2023-01-29T13:51:50.164Z,102060.00
2023-01-29T13:56:32.641Z,102056.34
2023-01-29T14:00:44.078Z,102044.69
2023-01-29T14:05:30.083Z,102034.25
2023-01-29T14:10:02.300Z,102031.28
2023-01-29T14:14:49.253Z,102039.53
2023-01-29T14:19:02.952Z,102044.84
2023-01-29T14:23:41.211Z,102026.97
2023-01-29T14:27:53.006Z,102028.66
2023-01-29T14:32:19.250Z,102019.34
2023-01-29T14:36:40.312Z,102014.66
2023-01-29T14:41:04.255Z,102024.16
2023-01-29T14:45:28.506Z,102023.13
2023-01-29T14:49:54.792Z,102012.94
2023-01-29T14:54:27.954Z,102013.78
2023-01-29T14:58:47.571Z,102005.75
2023-01-29T15:03:02.265Z,102008.91
2023-01-29T15:07:38.676Z,101993.22
2023-01-29T15:12:05.980Z,101990.91
2023-01-29T15:16:57.375Z,101985.44
2023-01-29T15:21:13.673Z,101975.09
2023-01-29T15:25:26.950Z,101990.06
2023-01-29T15:29:39.513Z,101975.41
2023-01-29T15:33:53.739Z,101969.06
2023-01-29T15:38:20.349Z,101968.78
2023-01-29T15:42:44.594Z,101956.13
2023-01-29T15:47:00.667Z,101952.41
2023-01-29T15:51:19.446Z,101938.41
2023-01-29T15:55:33.109Z,101947.09
2023-01-29T15:59:45.536Z,101930.88
2023-01-29T16:04:02.255Z,101945.03
2023-01-29T16:08:17.214Z,101937.72
2023-01-29T16:12:28.815Z,101934.88
2023-01-29T16:16:44.971Z,101928.88
2023-01-29T16:21:00.366Z,101932.16
2023-01-29T16:25:15.564Z,101933.00
2023-01-29T16:29:32.972Z,101924.16
2023-01-29T16:33:45.452Z,101922.34
2023-01-29T16:38:03.198Z,101930.88
2023-01-29T16:42:19.831Z,101929.19
2023-01-29T16:46:45.340Z,101930.66
2023-01-29T16:51:06.289Z,101910.44
2023-01-29T16:55:22.950Z,101915.72
2023-01-29T16:59:38.244Z,101914.25
2023-01-29T17:04:13.611Z,101906.44
2023-01-29T17:08:34.879Z,101905.22
2023-01-29T17:13:05.337Z,101906.16
2023-01-29T17:17:18.895Z,101900.47
2023-01-29T17:21:30.718Z,101904.94
2023-01-29T17:25:42.843Z,101902.97
2023-01-29T17:29:54.915Z,101897.34
2023-01-29T17:34:11.078Z,101893.69
2023-01-29T17:38:26.380Z,101888.22
2023-01-29T17:42:40.134Z,101889.75
2023-01-29T17:46:52.269Z,101882.22
2023-01-29T17:51:04.651Z,101885.56
2023-01-29T17:55:16.661Z,101875.69
2023-01-29T17:59:34.153Z,101876.38
2023-01-29T18:03:45.714Z,101861.69
2023-01-29T18:07:57.530Z,101864.88
2023-01-29T18:12:10.820Z,101849.22
2023-01-29T18:16:23.139Z,101837.59
2023-01-29T18:20:38.478Z,101827.31
2023-01-29T18:24:49.985Z,101823.38
2023-01-29T18:29:30.025Z,101820.06
2023-01-29T18:33:41.545Z,101805.88
2023-01-29T18:37:53.102Z,101797.91
2023-01-29T18:42:04.741Z,101796.59
2023-01-29T18:46:17.744Z,101796.78
2023-01-29T18:50:29.287Z,101769.78
2023-01-29T18:54:40.865Z,101757.47
2023-01-29T18:58:56.030Z,101775.53
2023-01-29T19:03:07.561Z,101766.03
2023-01-29T19:07:19.037Z,101723.03
2023-01-29T19:11:30.607Z,101741.56
2023-01-29T19:15:43.237Z,101723.41
2023-01-29T19:19:56.504Z,101736.28
2023-01-29T19:24:10.063Z,101680.16
2023-01-29T19:28:21.896Z,101669.81
2023-01-29T19:32:33.773Z,101667.31
2023-01-29T19:36:45.344Z,101669.84
2023-01-29T19:40:59.727Z,101680.56
2023-01-29T19:45:11.411Z,101648.25
2023-01-29T19:49:22.979Z,101646.75
2023-01-29T19:53:36.273Z,101678.41
2023-01-29T19:57:48.350Z,101667.25
2023-01-29T20:02:00.205Z,101650.41
2023-01-29T20:06:12.968Z,101658.53
2023-01-29T20:10:24.519Z,101625.47
2023-01-29T20:14:36.085Z,101636.94
2023-01-29T20:18:47.821Z,101671.94
2023-01-29T20:23:01.387Z,101623.78
2023-01-29T20:27:13.004Z,101664.78
2023-01-29T20:31:24.535Z,101627.47
2023-01-29T20:35:38.215Z,101635.50
2023-01-29T20:39:49.780Z,101626.00
2023-01-29T20:44:01.428Z,101644.13
2023-01-29T20:48:13.194Z,101642.84
2023-01-29T20:52:25.280Z,101642.16
2023-01-29T20:56:44.611Z,101619.84
2023-01-29T21:00:58.580Z,101642.81
2023-01-29T21:05:10.137Z,101640.66
2023-01-29T21:09:21.640Z,101657.81
2023-01-29T21:13:58.235Z,101646.66
2023-01-29T21:18:10.381Z,101646.81
2023-01-29T21:22:23.944Z,101632.50
2023-01-29T21:26:38.252Z,101629.16
2023-01-29T21:30:49.827Z,101629.50
2023-01-29T21:35:01.377Z,101639.00
2023-01-29T21:39:20.815Z,101635.69
2023-01-29T21:43:32.725Z,101629.84
2023-01-29T21:47:44.377Z,101632.50
2023-01-29T21:51:55.913Z,101635.34
2023-01-29T21:56:07.606Z,101609.38
2023-01-29T22:00:19.575Z,101622.53
2023-01-29T22:04:31.132Z,101595.06
2023-01-29T22:08:42.707Z,101552.94
2023-01-29T22:12:54.374Z,101527.31
2023-01-29T22:17:06.122Z,101520.84
2023-01-29T22:21:17.696Z,101502.31
2023-01-29T22:25:29.875Z,101503.50
2023-01-29T22:29:41.766Z,101475.19
2023-01-29T22:33:53.455Z,101523.75
2023-01-29T22:38:05.053Z,101499.28
2023-01-29T22:42:19.218Z,101471.53
2023-01-29T22:46:30.838Z,101499.97
2023-01-29T22:50:42.431Z,101488.47
2023-01-29T22:54:53.914Z,101442.72
2023-01-29T22:59:05.409Z,101456.00
2023-01-29T23:03:17.092Z,101435.84
2023-01-29T23:07:28.738Z,101410.09
2023-01-29T23:11:40.259Z,101430.63
2023-01-29T23:15:59.564Z,101430.28
2023-01-29T23:20:11.801Z,101431.59
2023-01-29T23:24:23.388Z,101439.25
2023-01-29T23:28:34.830Z,101431.91
2023-01-29T23:32:46.416Z,101430.19
2023-01-29T23:36:57.885Z,101426.03
2023-01-29T23:41:09.416Z,101439.16
2023-01-29T23:45:20.917Z,101414.69
2023-01-29T23:49:32.435Z,101410.19
2023-01-29T23:53:44.066Z,101406.16
2023-01-29T23:57:55.607Z,101383.19
